sensor_id;sensor_type;location;lat;lon;timestamp;pressure;altitude;pressure_sealevel;temperature;humidity
9141;BME280;46330;50.822;7.126;2023-02-05T00:01:06;103030.91;;;5.78;99.45
9141;BME280;46330;50.822;7.126;2023-02-05T00:03:38;103018.72;;;5.75;99.80
9141;BME280;46330;50.822;7.126;2023-02-05T00:06:13;103011.94;;;5.79;99.05
9141;BME280;46330;50.822;7.126;2023-02-05T00:08:45;103025.66;;;5.76;98.59
9141;BME280;46330;50.822;7.126;2023-02-05T00:11:21;103012.91;;;5.82;98.81
9141;BME280;46330;50.822;7.126;2023-02-05T00:13:54;103003.00;;;5.72;98.38
9141;BME280;46330;50.822;7.126;2023-02-05T00:16:29;102996.16;;;5.74;98.74
9141;BME280;46330;50.822;7.126;2023-02-05T00:19:11;102993.56;;;5.74;99.11
9141;BME280;46330;50.822;7.126;2023-02-05T00:22:01;102989.94;;;5.71;98.44
9141;BME280;46330;50.822;7.126;2023-02-05T00:24:34;102982.16;;;5.71;99.96
9141;BME280;46330;50.822;7.126;2023-02-05T00:27:16;102981.22;;;5.69;100.00
9141;BME280;46330;50.822;7.126;2023-02-05T00:29:45;102975.19;;;5.70;100.00
9141;BME280;46330;50.822;7.126;2023-02-05T00:32:20;102972.25;;;5.61;100.00
9141;BME280;46330;50.822;7.126;2023-02-05T00:34:52;102972.13;;;5.58;100.00
9141;BME280;46330;50.822;7.126;2023-02-05T00:37:23;102973.03;;;5.58;100.00
9141;BME280;46330;50.822;7.126;2023-02-05T00:40:09;102969.59;;;5.59;100.00
9141;BME280;46330;50.822;7.126;2023-02-05T00:42:43;102958.19;;;5.54;100.00
9141;BME280;46330;50.822;7.126;2023-02-05T00:45:15;102952.78;;;5.50;100.00
9141;BME280;46330;50.822;7.126;2023-02-05T00:47:44;102954.56;;;5.51;100.00
9141;BME280;46330;50.822;7.126;2023-02-05T00:50:16;102952.13;;;5.55;100.00
9141;BME280;46330;50.822;7.126;2023-02-05T00:52:48;102948.50;;;5.50;100.00
9141;BME280;46330;50.822;7.126;2023-02-05T00:55:23;102956.88;;;5.43;100.00
9141;BME280;46330;50.822;7.126;2023-02-05T00:58:01;102963.88;;;5.46;100.00
9141;BME280;46330;50.822;7.126;2023-02-05T01:00:33;102956.88;;;5.43;100.00
9141;BME280;46330;50.822;7.126;2023-02-05T01:03:09;102951.88;;;5.48;100.00
9141;BME280;46330;50.822;7.126;2023-02-05T01:05:42;102944.94;;;5.48;100.00
9141;BME280;46330;50.822;7.126;2023-02-05T01:08:18;102940.72;;;5.50;100.00
9141;BME280;46330;50.822;7.126;2023-02-05T01:10:53;102939.84;;;5.51;100.00
9141;BME280;46330;50.822;7.126;2023-02-05T01:13:32;102935.44;;;5.49;100.00
9141;BME280;46330;50.822;7.126;2023-02-05T01:16:06;102937.16;;;5.48;100.00
9141;BME280;46330;50.822;7.126;2023-02-05T01:18:39;102937.00;;;5.43;100.00
9141;BME280;46330;50.822;7.126;2023-02-05T01:21:13;102931.69;;;5.40;100.00
9141;BME280;46330;50.822;7.126;2023-02-05T01:23:42;102948.38;;;5.47;100.00
9141;BME280;46330;50.822;7.126;2023-02-05T01:26:14;102938.22;;;5.53;100.00
9141;BME280;46330;50.822;7.126;2023-02-05T01:28:45;102931.44;;;5.57;100.00
9141;BME280;46330;50.822;7.126;2023-02-05T01:31:15;102924.06;;;5.45;100.00
9141;BME280;46330;50.822;7.126;2023-02-05T01:33:48;102915.34;;;5.43;100.00
9141;BME280;46330;50.822;7.126;2023-02-05T01:36:24;102916.22;;;5.43;100.00
9141;BME280;46330;50.822;7.126;2023-02-05T01:38:54;102908.25;;;5.39;100.00
9141;BME280;46330;50.822;7.126;2023-02-05T01:41:29;102907.09;;;5.31;100.00
9141;BME280;46330;50.822;7.126;2023-02-05T01:44:06;102903.59;;;5.30;100.00
9141;BME280;46330;50.822;7.126;2023-02-05T01:46:41;102907.09;;;5.31;100.00
9141;BME280;46330;50.822;7.126;2023-02-05T01:49:23;102912.47;;;5.35;100.00
9141;BME280;46330;50.822;7.126;2023-02-05T01:52:00;102897.03;;;5.38;100.00
9141;BME280;46330;50.822;7.126;2023-02-05T01:54:37;102902.44;;;5.45;100.00
9141;BME280;46330;50.822;7.126;2023-02-05T01:57:15;102905.97;;;5.47;100.00
9141;BME280;46330;50.822;7.126;2023-02-05T01:59:53;102895.41;;;5.42;100.00
9141;BME280;46330;50.822;7.126;2023-02-05T02:02:29;102911.09;;;5.45;100.00
9141;BME280;46330;50.822;7.126;2023-02-05T02:05:06;102921.53;;;5.47;100.00
9141;BME280;46330;50.822;7.126;2023-02-05T02:07:41;102915.56;;;5.49;100.00
9141;BME280;46330;50.822;7.126;2023-02-05T02:10:16;102910.34;;;5.48;100.00
9141;BME280;46330;50.822;7.126;2023-02-05T02:12:57;102917.81;;;5.40;100.00
9141;BME280;46330;50.822;7.126;2023-02-05T02:15:32;102914.41;;;5.41;100.00
9141;BME280;46330;50.822;7.126;2023-02-05T02:18:09;102896.06;;;5.36;100.00
9141;BME280;46330;50.822;7.126;2023-02-05T02:21:23;102889.22;;;5.38;100.00
9141;BME280;46330;50.822;7.126;2023-02-05T02:27:35;102884.91;;;5.39;100.00
9141;BME280;46330;50.822;7.126;2023-02-05T02:30:22;102882.25;;;5.37;100.00
9141;BME280;46330;50.822;7.126;2023-02-05T02:33:03;102886.53;;;5.35;100.00
9141;BME280;46330;50.822;7.126;2023-02-05T02:35:46;102902.84;;;5.33;100.00
9141;BME280;46330;50.822;7.126;2023-02-05T02:38:33;102893.31;;;5.32;100.00
9141;BME280;46330;50.822;7.126;2023-02-05T02:41:13;102905.63;;;5.37;100.00
9141;BME280;46330;50.822;7.126;2023-02-05T02:43:55;102897.06;;;5.40;100.00
9141;BME280;46330;50.822;7.126;2023-02-05T02:46:35;102911.94;;;5.44;100.00
9141;BME280;46330;50.822;7.126;2023-02-05T02:49:15;102924.81;;;5.42;100.00
9141;BME280;46330;50.822;7.126;2023-02-05T02:52:03;102918.13;;;5.48;100.00
9141;BME280;46330;50.822;7.126;2023-02-05T02:54:37;102912.09;;;5.49;100.00
9141;BME280;46330;50.822;7.126;2023-02-05T02:57:11;102898.59;;;5.35;100.00
9141;BME280;46330;50.822;7.126;2023-02-05T02:59:57;102906.28;;;5.32;100.00
9141;BME280;46330;50.822;7.126;2023-02-05T03:02:34;102902.91;;;5.34;100.00
9141;BME280;46330;50.822;7.126;2023-02-05T03:05:14;102904.72;;;5.37;100.00
9141;BME280;46330;50.822;7.126;2023-02-05T03:07:53;102897.06;;;5.40;100.00
9141;BME280;46330;50.822;7.126;2023-02-05T03:10:32;102893.41;;;5.35;100.00
9141;BME280;46330;50.822;7.126;2023-02-05T03:13:08;102892.88;;;5.21;100.00
9141;BME280;46330;50.822;7.126;2023-02-05T03:15:45;102883.78;;;5.32;100.00
9141;BME280;46330;50.822;7.126;2023-02-05T03:18:17;102890.59;;;5.29;100.00
9141;BME280;46330;50.822;7.126;2023-02-05T03:20:52;102889.47;;;5.22;100.00
9141;BME280;46330;50.822;7.126;2023-02-05T03:23:28;102892.84;;;5.20;100.00
9141;BME280;46330;50.822;7.126;2023-02-05T03:25:58;102902.38;;;5.21;100.00
9141;BME280;46330;50.822;7.126;2023-02-05T03:28:37;102901.66;;;5.25;100.00
9141;BME280;46330;50.822;7.126;2023-02-05T03:31:15;102893.94;;;5.26;100.00
9141;BME280;46330;50.822;7.126;2023-02-05T03:34:05;102895.81;;;5.30;100.00
9141;BME280;46330;50.822;7.126;2023-02-05T03:36:47;102895.91;;;5.32;100.00
9141;BME280;46330;50.822;7.126;2023-02-05T03:39:36;102885.41;;;5.29;100.00
9141;BME280;46330;50.822;7.126;2023-02-05T03:42:19;102880.03;;;5.24;100.00
9141;BME280;46330;50.822;7.126;2023-02-05T03:45:15;102868.06;;;5.28;100.00
9141;BME280;46330;50.822;7.126;2023-02-05T03:48:02;102865.34;;;5.25;100.00
9141;BME280;46330;50.822;7.126;2023-02-05T03:50:41;102877.53;;;5.27;100.00
9141;BME280;46330;50.822;7.126;2023-02-05T03:53:18;102870.19;;;5.16;100.00
9141;BME280;46330;50.822;7.126;2023-02-05T03:56:01;102866.22;;;5.25;100.00
9141;BME280;46330;50.822;7.126;2023-02-05T03:58:41;102872.25;;;5.24;100.00
9141;BME280;46330;50.822;7.126;2023-02-05T04:01:17;102872.00;;;5.18;100.00
9141;BME280;46330;50.822;7.126;2023-02-05T04:03:52;102871.06;;;5.16;100.00
9141;BME280;46330;50.822;7.126;2023-02-05T04:06:24;102862.16;;;5.10;100.00
9141;BME280;46330;50.822;7.126;2023-02-05T04:09:00;102869.22;;;5.14;100.00
9141;BME280;46330;50.822;7.126;2023-02-05T04:11:43;102871.66;;;5.09;100.00
9141;BME280;46330;50.822;7.126;2023-02-05T04:14:22;102875.03;;;5.07;100.00
9141;BME280;46330;50.822;7.126;2023-02-05T04:16:59;102875.19;;;5.11;100.00
9141;BME280;46330;50.822;7.126;2023-02-05T04:19:33;102869.94;;;5.10;100.00
9141;BME280;46330;50.822;7.126;2023-02-05T04:22:16;102875.91;;;5.07;100.00
9141;BME280;46330;50.822;7.126;2023-02-05T04:25:02;102876.03;;;5.10;100.00
9141;BME280;46330;50.822;7.126;2023-02-05T04:27:39;102880.22;;;5.07;100.00
9141;BME280;46330;50.822;7.126;2023-02-05T04:30:12;102885.44;;;5.08;100.00
9141;BME280;46330;50.822;7.126;2023-02-05T04:32:47;102867.41;;;5.11;100.00
9141;BME280;46330;50.822;7.126;2023-02-05T04:35:19;102862.75;;;5.03;100.00
9141;BME280;46330;50.822;7.126;2023-02-05T04:37:50;102861.81;;;5.01;100.00
9141;BME280;46330;50.822;7.126;2023-02-05T04:40:26;102874.81;;;5.02;100.00
9141;BME280;46330;50.822;7.126;2023-02-05T04:42:58;102877.19;;;4.96;100.00
9141;BME280;46330;50.822;7.126;2023-02-05T04:45:32;102880.69;;;4.98;100.00
9141;BME280;46330;50.822;7.126;2023-02-05T04:48:07;102885.97;;;5.00;100.00
9141;BME280;46330;50.822;7.126;2023-02-05T04:50:52;102872.19;;;5.01;100.00
9141;BME280;46330;50.822;7.126;2023-02-05T04:53:24;102889.69;;;5.06;100.00
9141;BME280;46330;50.822;7.126;2023-02-05T04:56:04;102886.91;;;5.02;100.00
9141;BME280;46330;50.822;7.126;2023-02-05T04:58:42;102873.91;;;5.00;100.00
9141;BME280;46330;50.822;7.126;2023-02-05T05:01:13;102877.84;;;4.91;100.00
9141;BME280;46330;50.822;7.126;2023-02-05T05:03:52;102877.94;;;4.94;100.00
9141;BME280;46330;50.822;7.126;2023-02-05T05:06:32;102886.84;;;5.00;100.00
9141;BME280;46330;50.822;7.126;2023-02-05T05:09:06;102886.97;;;5.03;100.00
9141;BME280;46330;50.822;7.126;2023-02-05T05:11:36;102882.44;;;4.98;100.00
9141;BME280;46330;50.822;7.126;2023-02-05T05:14:12;102884.50;;;5.06;100.00
9141;BME280;46330;50.822;7.126;2023-02-05T05:16:48;102882.72;;;5.05;100.00
9141;BME280;46330;50.822;7.126;2023-02-05T05:19:25;102871.31;;;5.00;100.00
9141;BME280;46330;50.822;7.126;2023-02-05T05:22:05;102858.44;;;5.03;100.00
9141;BME280;46330;50.822;7.126;2023-02-05T05:24:39;102865.56;;;5.09;100.00
9141;BME280;46330;50.822;7.126;2023-02-05T05:27:09;102868.13;;;5.07;100.00
9141;BME280;46330;50.822;7.126;2023-02-05T05:29:41;102876.16;;;5.13;100.00
9141;BME280;46330;50.822;7.126;2023-02-05T05:32:13;102884.63;;;5.09;100.00
9141;BME280;46330;50.822;7.126;2023-02-05T05:34:48;102896.03;;;5.14;100.00
9141;BME280;46330;50.822;7.126;2023-02-05T05:37:23;102894.47;;;5.18;100.00
9141;BME280;46330;50.822;7.126;2023-02-05T05:39:56;102891.09;;;5.20;100.00
9141;BME280;46330;50.822;7.126;2023-02-05T05:42:43;102877.97;;;5.16;100.00
9141;BME280;46330;50.822;7.126;2023-02-05T05:45:30;102870.34;;;5.20;100.00
9141;BME280;46330;50.822;7.126;2023-02-05T05:48:00;102872.81;;;5.17;100.00
9141;BME280;46330;50.822;7.126;2023-02-05T05:50:30;102865.16;;;5.20;100.00
9141;BME280;46330;50.822;7.126;2023-02-05T05:53:05;102865.22;;;5.22;100.00
9141;BME280;46330;50.822;7.126;2023-02-05T05:55:37;102847.13;;;5.23;100.00
9141;BME280;46330;50.822;7.126;2023-02-05T05:58:10;102846.06;;;5.18;100.00
9141;BME280;46330;50.822;7.126;2023-02-05T06:00:43;102833.53;;;5.07;100.00
9141;BME280;46330;50.822;7.126;2023-02-05T06:03:19;102845.72;;;5.09;100.00
9141;BME280;46330;50.822;7.126;2023-02-05T06:05:53;102854.63;;;5.16;100.00
9141;BME280;46330;50.822;7.126;2023-02-05T06:08:25;102850.38;;;5.18;100.00
9141;BME280;46330;50.822;7.126;2023-02-05T06:11:02;102843.53;;;5.20;100.00
9141;BME280;46330;50.822;7.126;2023-02-05T06:13:32;102841.94;;;5.23;100.00
9141;BME280;46330;50.822;7.126;2023-02-05T06:16:08;102838.63;;;5.27;100.00
9141;BME280;46330;50.822;7.126;2023-02-05T06:18:40;102842.03;;;5.26;100.00
9141;BME280;46330;50.822;7.126;2023-02-05T06:21:16;102845.59;;;5.28;100.00
9141;BME280;46330;50.822;7.126;2023-02-05T06:23:50;102838.59;;;5.26;100.00
9141;BME280;46330;50.822;7.126;2023-02-05T06:26:20;102846.28;;;5.24;100.00
9141;BME280;46330;50.822;7.126;2023-02-05T06:28:59;102831.78;;;5.29;100.00
9141;BME280;46330;50.822;7.126;2023-02-05T06:31:32;102839.75;;;5.34;100.00
9141;BME280;46330;50.822;7.126;2023-02-05T06:34:01;102838.81;;;5.32;100.00
9141;BME280;46330;50.822;7.126;2023-02-05T06:36:33;102840.56;;;5.33;100.00
9141;BME280;46330;50.822;7.126;2023-02-05T06:39:07;102848.22;;;5.30;100.00
9141;BME280;46330;50.822;7.126;2023-02-05T06:41:39;102846.53;;;5.30;100.00
9141;BME280;46330;50.822;7.126;2023-02-05T06:44:27;102848.34;;;5.33;100.00
9141;BME280;46330;50.822;7.126;2023-02-05T06:47:07;102849.94;;;5.29;100.00
9141;BME280;46330;50.822;7.126;2023-02-05T06:49:36;102851.84;;;5.33;100.00
9141;BME280;46330;50.822;7.126;2023-02-05T06:52:11;102850.13;;;5.34;100.00
9141;BME280;46330;50.822;7.126;2023-02-05T06:54:42;102848.41;;;5.34;100.00
9141;BME280;46330;50.822;7.126;2023-02-05T06:57:19;102848.41;;;5.34;100.00
9141;BME280;46330;50.822;7.126;2023-02-05T06:59:52;102839.81;;;5.35;100.00
9141;BME280;46330;50.822;7.126;2023-02-05T07:02:28;102837.22;;;5.35;100.00
9141;BME280;46330;50.822;7.126;2023-02-05T07:04:57;102844.16;;;5.36;100.00
9141;BME280;46330;50.822;7.126;2023-02-05T07:07:33;102841.69;;;5.39;100.00
9141;BME280;46330;50.822;7.126;2023-02-05T07:10:05;102834.78;;;5.40;100.00
9141;BME280;46330;50.822;7.126;2023-02-05T07:12:42;102820.91;;;5.39;100.00
9141;BME280;46330;50.822;7.126;2023-02-05T07:15:11;102828.78;;;5.41;100.00
9141;BME280;46330;50.822;7.126;2023-02-05T07:17:40;102837.38;;;5.40;100.00
9141;BME280;46330;50.822;7.126;2023-02-05T07:20:12;102822.69;;;5.40;100.00
9141;BME280;46330;50.822;7.126;2023-02-05T07:22:45;102828.81;;;5.42;100.00
9141;BME280;46330;50.822;7.126;2023-02-05T07:25:18;102827.19;;;5.45;100.00
9141;BME280;46330;50.822;7.126;2023-02-05T07:27:47;102829.81;;;5.46;100.00
9141;BME280;46330;50.822;7.126;2023-02-05T07:30:17;102824.69;;;5.48;100.00
9141;BME280;46330;50.822;7.126;2023-02-05T07:32:51;102823.06;;;5.51;100.00
9141;BME280;46330;50.822;7.126;2023-02-05T07:35:24;102829.25;;;5.55;100.00
9141;BME280;46330;50.822;7.126;2023-02-05T07:37:54;102817.28;;;5.58;100.00
9141;BME280;46330;50.822;7.126;2023-02-05T07:40:29;102814.56;;;5.55;100.00
9141;BME280;46330;50.822;7.126;2023-02-05T07:43:11;102826.88;;;5.61;100.00
9141;BME280;46330;50.822;7.126;2023-02-05T07:45:44;102819.28;;;5.65;100.00
9141;BME280;46330;50.822;7.126;2023-02-05T07:48:15;102812.59;;;5.72;100.00
9141;BME280;46330;50.822;7.126;2023-02-05T07:50:47;102814.59;;;5.79;100.00
9141;BME280;46330;50.822;7.126;2023-02-05T07:53:21;102811.25;;;5.83;100.00
9141;BME280;46330;50.822;7.126;2023-02-05T07:55:55;102820.00;;;5.85;100.00
9141;BME280;46330;50.822;7.126;2023-02-05T07:58:27;102814.03;;;5.87;100.00
9141;BME280;46330;50.822;7.126;2023-02-05T08:00:59;102812.44;;;5.91;100.00
9141;BME280;46330;50.822;7.126;2023-02-05T08:03:43;102806.41;;;5.92;100.00
9141;BME280;46330;50.822;7.126;2023-02-05T08:06:17;102806.47;;;5.93;100.00
9141;BME280;46330;50.822;7.126;2023-02-05T08:08:46;102802.25;;;5.97;100.00
9141;BME280;46330;50.822;7.126;2023-02-05T08:11:18;102801.28;;;5.93;100.00
9141;BME280;46330;50.822;7.126;2023-02-05T08:13:49;102795.28;;;5.96;100.00
9141;BME280;46330;50.822;7.126;2023-02-05T08:16:21;102792.69;;;5.96;100.00
9141;BME280;46330;50.822;7.126;2023-02-05T08:18:54;102791.88;;;5.97;100.00
9141;BME280;46330;50.822;7.126;2023-02-05T08:21:26;102798.72;;;5.95;100.00
9141;BME280;46330;50.822;7.126;2023-02-05T08:24:03;102794.50;;;5.99;100.00
9141;BME280;46330;50.822;7.126;2023-02-05T08:26:35;102802.25;;;5.97;100.00
9141;BME280;46330;50.822;7.126;2023-02-05T08:29:05;102800.56;;;5.98;100.00
9141;BME280;46330;50.822;7.126;2023-02-05T08:31:37;102811.09;;;6.02;100.00
9141;BME280;46330;50.822;7.126;2023-02-05T08:34:09;102798.88;;;6.00;100.00
9141;BME280;46330;50.822;7.126;2023-02-05T08:36:41;102799.69;;;5.99;100.00
9141;BME280;46330;50.822;7.126;2023-02-05T08:39:12;102798.81;;;5.98;100.00
9141;BME280;46330;50.822;7.126;2023-02-05T08:41:44;102796.78;;;5.89;100.00
9141;BME280;46330;50.822;7.126;2023-02-05T08:44:13;102792.66;;;5.94;100.00
9141;BME280;46330;50.822;7.126;2023-02-05T08:46:47;102793.59;;;5.97;100.00
9141;BME280;46330;50.822;7.126;2023-02-05T08:49:21;102792.50;;;5.90;100.00
9141;BME280;46330;50.822;7.126;2023-02-05T08:51:50;102795.16;;;5.91;100.00
9141;BME280;46330;50.822;7.126;2023-02-05T08:54:31;102796.91;;;5.92;100.00
9141;BME280;46330;50.822;7.126;2023-02-05T08:57:08;102791.03;;;5.98;100.00
9141;BME280;46330;50.822;7.126;2023-02-05T08:59:38;102786.72;;;5.99;100.00
9141;BME280;46330;50.822;7.126;2023-02-05T09:02:12;102778.00;;;5.97;100.00
9141;BME280;46330;50.822;7.126;2023-02-05T09:04:44;102782.31;;;5.96;100.00
9141;BME280;46330;50.822;7.126;2023-02-05T09:07:45;102778.81;;;5.95;100.00
9141;BME280;46330;50.822;7.126;2023-02-05T09:10:14;102774.59;;;5.98;100.00
9141;BME280;46330;50.822;7.126;2023-02-05T09:12:49;102770.25;;;5.98;100.00
9141;BME280;46330;50.822;7.126;2023-02-05T09:15:22;102773.63;;;5.95;100.00
9141;BME280;46330;50.822;7.126;2023-02-05T09:17:52;102776.22;;;5.95;100.00
9141;BME280;46330;50.822;7.126;2023-02-05T09:20:22;102778.72;;;5.92;100.00
9141;BME280;46330;50.822;7.126;2023-02-05T09:23:00;102769.13;;;5.90;100.00
9141;BME280;46330;50.822;7.126;2023-02-05T09:25:33;102754.53;;;5.93;100.00
9141;BME280;46330;50.822;7.126;2023-02-05T09:28:07;102770.03;;;5.92;100.00
9141;BME280;46330;50.822;7.126;2023-02-05T09:30:43;102767.59;;;5.97;100.00
9141;BME280;46330;50.822;7.126;2023-02-05T09:33:17;102774.59;;;5.98;100.00
9141;BME280;46330;50.822;7.126;2023-02-05T09:35:58;102772.59;;;5.90;100.00
9141;BME280;46330;50.822;7.126;2023-02-05T09:38:37;102767.84;;;5.79;100.00
9141;BME280;46330;50.822;7.126;2023-02-05T09:41:22;102784.25;;;5.78;100.00
9141;BME280;46330;50.822;7.126;2023-02-05T09:44:13;102792.06;;;5.79;100.00
9141;BME280;46330;50.822;7.126;2023-02-05T09:46:47;102799.75;;;5.76;100.00
9141;BME280;46330;50.822;7.126;2023-02-05T09:49:36;102804.09;;;5.76;100.00
9141;BME280;46330;50.822;7.126;2023-02-05T09:52:17;102808.31;;;5.74;100.00
9141;BME280;46330;50.822;7.126;2023-02-05T09:54:51;102814.19;;;5.68;100.00
9141;BME280;46330;50.822;7.126;2023-02-05T09:57:32;102823.69;;;5.68;100.00
9141;BME280;46330;50.822;7.126;2023-02-05T10:00:15;102826.38;;;5.71;100.00
9141;BME280;46330;50.822;7.126;2023-02-05T10:02:52;102817.78;;;5.72;100.00
9141;BME280;46330;50.822;7.126;2023-02-05T10:06:15;102825.50;;;5.70;100.00
9141;BME280;46330;50.822;7.126;2023-02-05T10:09:00;102820.31;;;5.70;100.00
9141;BME280;46330;50.822;7.126;2023-02-05T10:11:45;102831.91;;;5.80;100.00
9141;BME280;46330;50.822;7.126;2023-02-05T10:14:36;102821.16;;;5.69;100.00
9141;BME280;46330;50.822;7.126;2023-02-05T10:17:25;102831.44;;;5.66;100.00
9141;BME280;46330;50.822;7.126;2023-02-05T10:20:21;102834.28;;;5.74;100.00
9141;BME280;46330;50.822;7.126;2023-02-05T10:23:12;102837.44;;;5.65;100.00
9141;BME280;46330;50.822;7.126;2023-02-05T10:25:55;102836.34;;;5.59;100.00
9141;BME280;46330;50.822;7.126;2023-02-05T10:28:37;102833.59;;;5.54;100.00
9141;BME280;46330;50.822;7.126;2023-02-05T10:31:16;102837.03;;;5.55;100.00
9141;BME280;46330;50.822;7.126;2023-02-05T10:33:53;102829.34;;;5.56;100.00
9141;BME280;46330;50.822;7.126;2023-02-05T10:36:27;102827.56;;;5.55;100.00
9141;BME280;46330;50.822;7.126;2023-02-05T10:38:57;102832.41;;;5.46;100.00
9141;BME280;46330;50.822;7.126;2023-02-05T10:41:32;102831.72;;;5.50;100.00
9141;BME280;46330;50.822;7.126;2023-02-05T10:44:11;102832.06;;;5.61;100.00
9141;BME280;46330;50.822;7.126;2023-02-05T10:46:49;102844.44;;;5.68;100.00
9141;BME280;46330;50.822;7.126;2023-02-05T10:49:39;102824.25;;;5.59;100.00
9141;BME280;46330;50.822;7.126;2023-02-05T10:52:14;102839.16;;;5.65;100.00
9141;BME280;46330;50.822;7.126;2023-02-05T10:54:51;102833.72;;;5.57;100.00
9141;BME280;46330;50.822;7.126;2023-02-05T10:57:33;102835.41;;;5.57;100.00
9141;BME280;46330;50.822;7.126;2023-02-05T11:00:13;102835.41;;;5.57;100.00
9141;BME280;46330;50.822;7.126;2023-02-05T11:02:48;102841.59;;;5.60;100.00
9141;BME280;46330;50.822;7.126;2023-02-05T11:05:29;102837.81;;;5.52;100.00
9141;BME280;46330;50.822;7.126;2023-02-05T11:08:02;102840.81;;;5.63;100.00
9141;BME280;46330;50.822;7.126;2023-02-05T11:10:40;102845.22;;;5.65;100.00
9141;BME280;46330;50.822;7.126;2023-02-05T11:13:17;102838.25;;;5.64;100.00
9141;BME280;46330;50.822;7.126;2023-02-05T11:16:03;102836.44;;;5.62;100.00
9141;BME280;46330;50.822;7.126;2023-02-05T11:18:45;102835.84;;;5.69;100.00
9141;BME280;46330;50.822;7.126;2023-02-05T11:21:52;102845.44;;;5.71;100.00
9141;BME280;46330;50.822;7.126;2023-02-05T11:24:29;102833.47;;;5.75;100.00
9141;BME280;46330;50.822;7.126;2023-02-05T11:27:22;102824.78;;;5.74;100.00
9141;BME280;46330;50.822;7.126;2023-02-05T11:30:14;102833.63;;;5.79;100.00
9141;BME280;46330;50.822;7.126;2023-02-05T11:33:24;102832.00;;;5.83;100.00
9141;BME280;46330;50.822;7.126;2023-02-05T11:36:00;102826.97;;;5.86;100.00
9141;BME280;46330;50.822;7.126;2023-02-05T11:38:45;102834.34;;;5.75;100.00
9141;BME280;46330;50.822;7.126;2023-02-05T11:41:28;102825.25;;;5.86;100.00
9141;BME280;46330;50.822;7.126;2023-02-05T11:44:20;102819.16;;;5.86;100.00
9141;BME280;46330;50.822;7.126;2023-02-05T11:46:58;102815.63;;;5.84;100.00
9141;BME280;46330;50.822;7.126;2023-02-05T11:49:34;102831.25;;;5.85;100.00
9141;BME280;46330;50.822;7.126;2023-02-05T11:52:10;102828.59;;;5.84;100.00
9141;BME280;46330;50.822;7.126;2023-02-05T11:54:48;102828.13;;;5.94;100.00
9141;BME280;46330;50.822;7.126;2023-02-05T11:57:31;102817.47;;;5.86;100.00
9141;BME280;46330;50.822;7.126;2023-02-05T12:00:19;102821.69;;;5.84;100.00
9141;BME280;46330;50.822;7.126;2023-02-05T12:03:15;102817.28;;;5.82;100.00
9141;BME280;46330;50.822;7.126;2023-02-05T12:05:51;102810.72;;;5.91;100.00
9141;BME280;46330;50.822;7.126;2023-02-05T12:08:45;102815.06;;;5.92;100.00
9141;BME280;46330;50.822;7.126;2023-02-05T12:11:39;102814.88;;;5.86;100.00
9141;BME280;46330;50.822;7.126;2023-02-05T12:14:48;102818.13;;;5.82;100.00
9141;BME280;46330;50.822;7.126;2023-02-05T12:17:38;102831.91;;;5.80;100.00
9141;BME280;46330;50.822;7.126;2023-02-05T12:20:19;102830.19;;;5.80;100.00
9141;BME280;46330;50.822;7.126;2023-02-05T12:23:22;102829.88;;;5.71;100.00
9141;BME280;46330;50.822;7.126;2023-02-05T12:26:08;102817.09;;;5.77;100.00
9141;BME280;46330;50.822;7.126;2023-02-05T12:29:12;102826.38;;;5.71;100.00
9141;BME280;46330;50.822;7.126;2023-02-05T12:32:00;102812.63;;;5.73;100.00
9141;BME280;46330;50.822;7.126;2023-02-05T12:34:51;102814.22;;;5.70;100.00
9141;BME280;46330;50.822;7.126;2023-02-05T12:37:35;102808.09;;;5.68;100.00
9141;BME280;46330;50.822;7.126;2023-02-05T12:40:17;102813.25;;;5.66;100.00
9141;BME280;46330;50.822;7.126;2023-02-05T12:42:58;102814.97;;;5.66;100.00
9141;BME280;46330;50.822;7.126;2023-02-05T12:45:39;102811.59;;;5.68;100.00
9141;BME280;46330;50.822;7.126;2023-02-05T12:48:32;102808.81;;;5.64;100.00
9141;BME280;46330;50.822;7.126;2023-02-05T12:51:16;102813.50;;;5.74;100.00
9141;BME280;46330;50.822;7.126;2023-02-05T12:53:59;102810.56;;;5.63;100.00
9141;BME280;46330;50.822;7.126;2023-02-05T12:56:53;102807.00;;;5.61;100.00
9141;BME280;46330;50.822;7.126;2023-02-05T12:59:39;102811.16;;;5.56;100.00
9141;BME280;46330;50.822;7.126;2023-02-05T13:02:20;102813.09;;;5.62;100.00
9141;BME280;46330;50.822;7.126;2023-02-05T13:04:55;102806.19;;;5.62;100.00
9141;BME280;46330;50.822;7.126;2023-02-05T13:07:34;102794.78;;;5.57;100.00
9141;BME280;46330;50.822;7.126;2023-02-05T13:10:15;102796.50;;;5.58;100.00
9141;BME280;46330;50.822;7.126;2023-02-05T13:12:53;102793.00;;;5.56;100.00
9141;BME280;46330;50.822;7.126;2023-02-05T13:15:29;102791.31;;;5.58;100.00
9141;BME280;46330;50.822;7.126;2023-02-05T13:18:14;102787.09;;;5.60;100.00
9141;BME280;46330;50.822;7.126;2023-02-05T13:20:52;102784.50;;;5.60;100.00
9141;BME280;46330;50.822;7.126;2023-02-05T13:23:45;102785.41;;;5.62;100.00
9141;BME280;46330;50.822;7.126;2023-02-05T13:26:39;102782.03;;;5.65;100.00
9141;BME280;46330;50.822;7.126;2023-02-05T13:29:34;102785.25;;;5.58;100.00
9141;BME280;46330;50.822;7.126;2023-02-05T13:32:24;102794.00;;;5.60;100.00
9141;BME280;46330;50.822;7.126;2023-02-05T13:35:10;102796.50;;;5.58;100.00
9141;BME280;46330;50.822;7.126;2023-02-05T13:37:59;102794.69;;;5.56;100.00
9141;BME280;46330;50.822;7.126;2023-02-05T13:43:54;102801.59;;;5.55;100.00
9141;BME280;46330;50.822;7.126;2023-02-05T13:47:00;102798.84;;;5.51;100.00
9141;BME280;46330;50.822;7.126;2023-02-05T13:50:14;102809.88;;;5.45;100.00
9141;BME280;46330;50.822;7.126;2023-02-05T13:56:08;102811.84;;;5.51;100.00
9141;BME280;46330;50.822;7.126;2023-02-05T13:58:46;102817.94;;;5.53;100.00
9141;BME280;46330;50.822;7.126;2023-02-05T14:01:29;102823.13;;;5.53;100.00
9141;BME280;46330;50.822;7.126;2023-02-05T14:04:04;102835.22;;;5.52;100.00
9141;BME280;46330;50.822;7.126;2023-02-05T14:06:39;102828.34;;;5.53;100.00
9141;BME280;46330;50.822;7.126;2023-02-05T14:09:18;102852.47;;;5.50;100.00